createdAt,value
2022-10-11T00:01:46.152Z,101728.94
2022-10-11T00:04:13.960Z,101735.03
2022-10-11T00:06:43.399Z,101728.03
2022-10-11T00:09:12.471Z,101737.63
2022-10-11T00:11:41.580Z,101735.00
2022-10-11T00:14:09.566Z,101731.50
2022-10-11T00:16:38.654Z,101737.56
2022-10-11T00:19:06.398Z,101745.38
2022-10-11T00:21:34.120Z,101734.03
2022-10-11T00:24:01.992Z,101739.28
2022-10-11T00:26:29.970Z,101740.97
2022-10-11T00:28:59.317Z,101743.59
2022-10-11T00:31:28.388Z,101752.25
2022-10-11T00:33:58.602Z,101749.63
2022-10-11T00:36:26.652Z,101754.00
2022-10-11T00:38:54.445Z,101754.84
2022-10-11T00:41:22.903Z,101753.97
2022-10-11T00:44:14.410Z,101759.16
2022-10-11T00:46:45.517Z,101762.59
2022-10-11T00:49:19.027Z,101759.97
2022-10-11T00:51:54.365Z,101756.44
2022-10-11T00:54:25.279Z,101758.16
2022-10-11T00:56:57.395Z,101752.09
2022-10-11T00:59:30.519Z,101752.06
2022-10-11T01:01:58.607Z,101758.13
2022-10-11T01:04:26.322Z,101749.38
2022-10-11T01:06:55.600Z,101752.78
2022-10-11T01:09:23.545Z,101756.31
2022-10-11T01:11:54.709Z,101756.31
2022-10-11T01:14:54.845Z,101750.22
2022-10-11T01:17:34.579Z,101758.91
2022-10-11T01:20:39.048Z,101760.59
2022-10-11T01:23:57.516Z,101754.44
2022-10-11T01:27:02.517Z,101763.13
2022-10-11T01:29:42.659Z,101753.53
2022-10-11T01:32:16.887Z,101761.31
2022-10-11T01:34:52.639Z,101770.75
2022-10-11T01:37:25.270Z,101768.13
2022-10-11T01:39:59.965Z,101766.38
2022-10-11T01:42:29.769Z,101768.00
2022-10-11T01:44:59.645Z,101764.47
2022-10-11T01:47:28.753Z,101768.81
2022-10-11T01:49:57.899Z,101766.16
2022-10-11T01:52:27.877Z,101770.50
2022-10-11T01:55:12.844Z,101774.81
2022-10-11T01:58:07.252Z,101776.47
2022-10-11T02:00:44.270Z,101774.69
2022-10-11T02:03:25.872Z,101767.63
2022-10-11T02:05:58.462Z,101770.19
2022-10-11T02:08:34.461Z,101768.50
2022-10-11T02:11:08.118Z,101769.31
2022-10-11T02:13:41.223Z,101771.03
2022-10-11T02:16:19.811Z,101773.63
2022-10-11T02:18:53.925Z,101773.63
2022-10-11T02:21:23.934Z,101784.03
2022-10-11T02:23:55.178Z,101784.84
2022-10-11T02:26:26.064Z,101775.19
2022-10-11T02:28:58.355Z,101781.28
2022-10-11T02:31:27.141Z,101776.09
2022-10-11T02:34:02.714Z,101784.69
2022-10-11T02:36:41.641Z,101779.44
2022-10-11T02:39:17.232Z,101786.28
2022-10-11T02:41:47.112Z,101793.16
2022-10-11T02:44:20.886Z,101789.66
2022-10-11T02:46:50.828Z,101790.41
2022-10-11T02:49:21.086Z,101792.16
2022-10-11T02:51:49.206Z,101797.38
2022-10-11T02:54:16.932Z,101801.66
2022-10-11T02:56:44.617Z,101811.91
2022-10-11T02:59:12.561Z,101805.66
2022-10-11T03:01:40.369Z,101816.06
2022-10-11T03:04:08.144Z,101815.22
2022-10-11T03:06:37.291Z,101810.09
2022-10-11T03:09:05.054Z,101822.13
2022-10-11T03:11:32.792Z,101822.97
2022-10-11T03:14:00.542Z,101823.09
2022-10-11T03:16:28.207Z,101821.44
2022-10-11T03:18:56.229Z,101824.03
2022-10-11T03:21:25.466Z,101824.00
2022-10-11T03:23:54.573Z,101826.59
2022-10-11T03:26:22.305Z,101827.44
2022-10-11T03:28:50.275Z,101831.75
2022-10-11T03:31:18.542Z,101835.22
2022-10-11T03:33:46.370Z,101830.03
2022-10-11T03:36:14.278Z,101835.13
2022-10-11T03:38:42.247Z,101835.09
2022-10-11T03:41:11.331Z,101839.31
2022-10-11T03:43:39.028Z,101834.97
2022-10-11T03:46:07.602Z,101844.47
2022-10-11T03:48:35.886Z,101844.34
2022-10-11T03:51:03.591Z,101844.28
2022-10-11T03:53:31.341Z,101841.59
2022-10-11T03:55:59.131Z,101851.19
2022-10-11T03:58:28.242Z,101848.66
2022-10-11T04:00:55.929Z,101852.97
2022-10-11T04:03:23.759Z,101851.22
2022-10-11T04:05:51.469Z,101859.88
2022-10-11T04:08:19.532Z,101861.66
2022-10-11T04:10:48.961Z,101858.19
2022-10-11T04:13:17.080Z,101863.38
2022-10-11T04:15:46.357Z,101858.28
2022-10-11T04:18:14.107Z,101868.66
2022-10-11T04:20:42.695Z,101871.19
2022-10-11T04:23:10.396Z,101872.84
2022-10-11T04:25:39.423Z,101867.78
2022-10-11T04:28:07.984Z,101867.88
2022-10-11T04:30:35.861Z,101868.81
2022-10-11T04:33:05.156Z,101861.91
2022-10-11T04:35:32.898Z,101876.69
2022-10-11T04:38:00.613Z,101875.88
2022-10-11T04:40:28.412Z,101875.03
2022-10-11T04:42:56.103Z,101875.06
2022-10-11T04:45:23.899Z,101880.25
2022-10-11T04:47:51.585Z,101875.97
2022-10-11T04:50:20.772Z,101877.72
2022-10-11T04:52:48.592Z,101880.38
2022-10-11T04:55:16.489Z,101882.19
2022-10-11T04:57:44.227Z,101886.50
2022-10-11T05:00:13.434Z,101887.38
2022-10-11T05:02:41.193Z,101889.16
2022-10-11T05:05:09.947Z,101884.03
2022-10-11T05:07:39.021Z,101895.31
2022-10-11T05:10:08.463Z,101888.25
2022-10-11T05:12:36.219Z,101890.91
2022-10-11T05:15:04.126Z,101899.69
2022-10-11T05:17:32.158Z,101899.63
2022-10-11T05:20:00.059Z,101906.66
2022-10-11T05:22:27.765Z,101910.09
2022-10-11T05:24:56.841Z,101913.63
2022-10-11T05:27:24.625Z,101912.03
2022-10-11T05:29:52.312Z,101911.16
2022-10-11T05:32:20.022Z,101910.34
2022-10-11T05:34:47.799Z,101913.78
2022-10-11T05:37:15.474Z,101925.16
2022-10-11T05:39:43.237Z,101929.59
2022-10-11T05:42:12.238Z,101937.47
2022-10-11T05:44:40.013Z,101935.84
2022-10-11T05:47:07.669Z,101930.72
2022-10-11T05:49:35.351Z,101928.16
2022-10-11T05:52:03.025Z,101936.81
2022-10-11T05:54:32.270Z,101941.13
2022-10-11T05:57:00.025Z,101942.94
2022-10-11T05:59:29.034Z,101939.44
2022-10-11T06:01:56.700Z,101943.84
2022-10-11T06:04:24.371Z,101944.69
2022-10-11T06:06:52.004Z,101947.34
2022-10-11T06:09:19.754Z,101944.66
2022-10-11T06:11:47.737Z,101947.34
2022-10-11T06:14:15.513Z,101949.97
2022-10-11T06:16:44.989Z,101958.69
2022-10-11T06:19:12.729Z,101953.50
2022-10-11T06:21:40.427Z,101956.94
2022-10-11T06:24:09.285Z,101957.03
2022-10-11T06:26:37.150Z,101961.53
2022-10-11T06:29:05.539Z,101966.00
2022-10-11T06:31:33.746Z,101966.91
2022-10-11T06:34:02.921Z,101969.59
2022-10-11T06:36:30.924Z,101975.56
2022-10-11T06:39:00.893Z,101976.47
2022-10-11T06:41:30.375Z,101979.13
2022-10-11T06:43:58.222Z,101981.72
2022-10-11T06:46:28.846Z,101984.44
2022-10-11T06:48:57.295Z,101988.84
2022-10-11T06:51:28.538Z,101993.25
2022-10-11T06:53:58.562Z,102002.09
2022-10-11T06:56:27.192Z,102001.25
2022-10-11T06:58:55.525Z,101994.34
2022-10-11T07:01:24.532Z,102003.97
2022-10-11T07:03:53.644Z,102007.53
2022-10-11T07:06:23.288Z,102011.06
2022-10-11T07:08:53.041Z,102013.69
2022-10-11T07:11:22.951Z,102015.41
2022-10-11T07:13:51.948Z,102019.81
2022-10-11T07:16:20.646Z,102016.38
2022-10-11T07:18:49.467Z,102023.44
2022-10-11T07:21:17.544Z,102020.88
2022-10-11T07:23:45.489Z,102027.03
2022-10-11T07:26:14.693Z,102027.94
2022-10-11T07:28:42.895Z,102026.28
2022-10-11T07:31:13.288Z,102033.31
2022-10-11T07:33:41.127Z,102029.88
2022-10-11T07:36:09.774Z,102033.34
2022-10-11T07:38:40.991Z,102026.34
2022-10-11T07:41:09.598Z,102048.34
2022-10-11T07:43:39.183Z,102043.00
2022-10-11T07:46:08.115Z,102036.16
2022-10-11T07:48:37.417Z,102044.97
2022-10-11T07:51:06.625Z,102043.25
2022-10-11T07:53:39.717Z,102049.31
2022-10-11T07:56:08.769Z,102050.28
2022-10-11T07:58:38.500Z,102042.44
2022-10-11T08:01:07.131Z,102049.47
2022-10-11T08:03:34.912Z,102051.28
2022-10-11T08:06:03.917Z,102047.78
2022-10-11T08:08:32.276Z,102052.22
2022-10-11T08:11:00.686Z,102056.63
2022-10-11T08:13:28.623Z,102058.50
2022-10-11T08:15:57.931Z,102063.78
2022-10-11T08:18:25.953Z,102063.81
2022-10-11T08:20:54.038Z,102061.25
2022-10-11T08:23:21.808Z,102061.28
2022-10-11T08:25:49.723Z,102064.84
2022-10-11T08:28:18.003Z,102063.13
2022-10-11T08:30:50.515Z,102065.75
2022-10-11T08:33:20.913Z,102067.22
2022-10-11T08:35:49.152Z,102066.44
2022-10-11T08:38:17.942Z,102070.03
2022-10-11T08:40:50.527Z,102074.47
2022-10-11T08:43:33.163Z,102077.06
2022-10-11T08:46:03.676Z,102076.22
2022-10-11T08:48:37.596Z,102074.47
2022-10-11T08:51:15.007Z,102071.88
2022-10-11T08:53:50.276Z,102068.38
2022-10-11T08:56:18.707Z,102074.47
2022-10-11T08:58:51.606Z,102077.94
2022-10-11T09:01:22.938Z,102069.22
2022-10-11T09:03:53.177Z,102064.84
2022-10-11T09:06:37.604Z,102068.38
2022-10-11T09:09:22.877Z,102079.66
2022-10-11T09:12:03.755Z,102075.28
2022-10-11T09:15:06.711Z,102075.28
2022-10-11T09:17:56.538Z,102077.94
2022-10-11T09:20:53.021Z,102077.03
2022-10-11T09:23:39.270Z,102073.53
2022-10-11T09:26:13.881Z,102074.47
2022-10-11T09:28:58.680Z,102075.34
2022-10-11T09:31:29.273Z,102072.72
2022-10-11T09:33:59.963Z,102074.41
2022-10-11T09:36:37.112Z,102072.63
2022-10-11T09:39:14.691Z,102069.22
2022-10-11T09:41:48.956Z,102079.69
2022-10-11T09:44:23.536Z,102071.84
2022-10-11T09:46:53.742Z,102077.09
2022-10-11T09:49:25.132Z,102077.09
2022-10-11T09:51:57.372Z,102077.94
2022-10-11T09:54:39.105Z,102074.47
2022-10-11T09:57:07.181Z,102086.66
2022-10-11T09:59:35.974Z,102085.81
2022-10-11T10:02:18.836Z,102073.59
2022-10-11T10:04:58.432Z,102080.56
2022-10-11T10:07:28.458Z,102078.00
2022-10-11T10:09:56.342Z,102084.94
2022-10-11T10:12:28.175Z,102087.56
2022-10-11T10:15:02.556Z,102077.06
2022-10-11T10:17:30.472Z,102083.09
2022-10-11T10:20:00.385Z,102082.22
2022-10-11T10:22:33.273Z,102075.91
2022-10-11T10:25:07.140Z,102078.81
2022-10-11T10:27:35.302Z,102077.81
2022-10-11T10:30:15.872Z,102076.97
2022-10-11T10:32:50.827Z,102085.69
2022-10-11T10:35:29.536Z,102084.00
2022-10-11T10:38:08.216Z,102079.13
2022-10-11T10:40:42.627Z,102077.34
2022-10-11T10:43:18.776Z,102078.47
2022-10-11T10:46:18.380Z,102073.22
2022-10-11T10:51:50.593Z,102058.84
2022-10-11T10:54:30.762Z,102073.56
2022-10-11T10:57:03.267Z,102067.69
2022-10-11T10:59:47.811Z,102068.19
2022-10-11T11:02:39.828Z,102058.88
2022-10-11T11:05:18.705Z,102053.63
2022-10-11T11:07:51.046Z,102056.84
2022-10-11T11:10:23.908Z,102049.53
2022-10-11T11:12:58.296Z,102048.72
2022-10-11T11:15:36.968Z,102053.78
2022-10-11T11:18:20.185Z,102059.06
2022-10-11T11:21:01.516Z,102048.41
2022-10-11T11:23:38.341Z,102050.88
2022-10-11T11:26:17.754Z,102049.66
2022-10-11T11:28:57.276Z,102047.16
2022-10-11T11:31:44.112Z,102038.56
2022-10-11T11:34:20.538Z,102044.44
2022-10-11T11:36:52.928Z,102040.63
2022-10-11T11:39:24.228Z,102036.34
2022-10-11T11:41:57.556Z,102030.44
2022-10-11T11:44:31.066Z,102029.69
2022-10-11T11:47:04.209Z,102022.66
2022-10-11T11:49:36.132Z,102023.75
2022-10-11T11:52:05.503Z,102025.53
2022-10-11T11:54:43.363Z,102021.56
2022-10-11T11:57:24.686Z,102017.00
2022-10-11T11:59:58.144Z,102004.91
2022-10-11T12:02:40.066Z,102015.41
2022-10-11T12:05:09.413Z,102015.34
2022-10-11T12:07:53.884Z,102002.53
2022-10-11T12:10:32.319Z,102001.41
2022-10-11T12:13:22.934Z,101997.97
2022-10-11T12:16:10.303Z,101993.53
2022-10-11T12:18:51.053Z,101996.53
2022-10-11T12:21:23.259Z,101996.22
2022-10-11T12:23:52.363Z,102002.81
2022-10-11T12:26:36.677Z,101991.78
2022-10-11T12:29:55.564Z,101987.34
2022-10-11T12:32:53.327Z,101988.09
2022-10-11T12:35:42.399Z,101984.63
2022-10-11T12:38:20.301Z,101984.28
2022-10-11T12:40:49.671Z,101971.22
2022-10-11T12:43:59.758Z,101967.09
2022-10-11T12:46:58.892Z,101976.84
2022-10-11T12:49:44.781Z,101968.88
2022-10-11T12:52:29.798Z,101971.53
2022-10-11T12:55:30.516Z,101963.34
2022-10-11T12:58:26.850Z,101962.59
2022-10-11T13:01:16.611Z,101951.28
2022-10-11T13:03:47.645Z,101957.31
2022-10-11T13:06:19.366Z,101950.25
2022-10-11T13:08:53.292Z,101951.31
2022-10-11T13:11:23.687Z,101948.66
2022-10-11T13:13:55.181Z,101947.69
2022-10-11T13:16:26.469Z,101948.16
2022-10-11T13:18:57.472Z,101941.47
2022-10-11T13:21:31.071Z,101944.19
2022-10-11T13:24:01.399Z,101935.03
2022-10-11T13:26:31.588Z,101939.28
2022-10-11T13:29:01.177Z,101938.47
2022-10-11T13:31:29.131Z,101926.41
2022-10-11T13:33:59.077Z,101929.41
2022-10-11T13:36:28.491Z,101940.47
2022-10-11T13:38:58.672Z,101932.16
2022-10-11T13:41:28.121Z,101932.06
2022-10-11T13:43:58.054Z,101933.81
2022-10-11T13:46:27.569Z,101930.41
2022-10-11T13:49:02.489Z,101926.78
2022-10-11T13:51:36.732Z,101923.22
2022-10-11T13:54:08.466Z,101933.03
2022-10-11T13:56:45.105Z,101917.28
2022-10-11T13:59:18.245Z,101918.69
2022-10-11T14:01:46.742Z,101919.41
2022-10-11T14:04:17.371Z,101927.31
2022-10-11T14:06:49.028Z,101919.72
2022-10-11T14:09:21.464Z,101913.50
2022-10-11T14:11:50.162Z,101910.63
2022-10-11T14:14:43.660Z,101907.13
2022-10-11T14:17:17.124Z,101909.13
2022-10-11T14:19:45.993Z,101905.66
2022-10-11T14:22:17.225Z,101893.94
2022-10-11T14:24:48.021Z,101901.84
2022-10-11T14:27:19.598Z,101893.19
2022-10-11T14:30:00.543Z,101893.28
2022-10-11T14:32:36.294Z,101891.59
2022-10-11T14:35:05.204Z,101897.09
2022-10-11T14:37:34.310Z,101902.75
2022-10-11T14:40:02.042Z,101892.34
2022-10-11T14:42:29.857Z,101888.88
2022-10-11T14:44:57.552Z,101887.78
2022-10-11T14:47:25.268Z,101886.72
2022-10-11T14:49:52.979Z,101887.59
2022-10-11T14:52:20.697Z,101877.41
2022-10-11T14:54:49.787Z,101886.19
2022-10-11T14:57:17.533Z,101887.28
2022-10-11T14:59:45.318Z,101885.25
2022-10-11T15:02:13.167Z,101883.81
2022-10-11T15:04:40.827Z,101881.34
2022-10-11T15:07:08.758Z,101882.91
2022-10-11T15:09:36.475Z,101882.50
2022-10-11T15:12:06.152Z,101874.50
2022-10-11T15:14:33.869Z,101878.06
2022-10-11T15:17:01.545Z,101874.59
2022-10-11T15:19:29.273Z,101872.09
2022-10-11T15:21:56.979Z,101874.47
2022-10-11T15:24:24.799Z,101875.28
2022-10-11T15:26:52.487Z,101866.69
2022-10-11T15:29:24.026Z,101876.88
2022-10-11T15:31:51.960Z,101869.09
2022-10-11T15:34:19.636Z,101869.38
2022-10-11T15:36:47.708Z,101865.28
2022-10-11T15:39:25.382Z,101872.50
2022-10-11T15:41:53.264Z,101876.88
2022-10-11T15:44:22.445Z,101876.09
2022-10-11T15:46:50.190Z,101871.34
2022-10-11T15:49:19.165Z,101873.88
2022-10-11T15:51:47.350Z,101870.06
2022-10-11T15:54:15.096Z,101875.16
2022-10-11T15:56:43.140Z,101869.88
2022-10-11T15:59:11.571Z,101872.56
2022-10-11T16:01:40.810Z,101866.47
2022-10-11T16:04:08.602Z,101864.91
2022-10-11T16:06:36.307Z,101860.41
2022-10-11T16:09:04.238Z,101862.94
2022-10-11T16:11:32.110Z,101862.16
2022-10-11T16:13:59.854Z,101864.94
2022-10-11T16:16:27.520Z,101860.50
2022-10-11T16:18:56.583Z,101859.56
2022-10-11T16:21:24.653Z,101868.47
2022-10-11T16:23:52.357Z,101866.00
2022-10-11T16:26:20.188Z,101862.69
2022-10-11T16:28:48.464Z,101863.69
2022-10-11T16:31:20.694Z,101854.31
2022-10-11T16:33:48.728Z,101858.72
2022-10-11T16:36:39.932Z,101870.25
2022-10-11T16:39:10.311Z,101874.75
2022-10-11T16:41:38.833Z,101867.03
2022-10-11T16:44:07.141Z,101867.94
2022-10-11T16:46:35.438Z,101866.28
2022-10-11T16:49:03.576Z,101876.00
2022-10-11T16:51:32.709Z,101869.06
2022-10-11T16:54:00.652Z,101869.13
2022-10-11T16:56:28.666Z,101867.44
2022-10-11T16:58:56.419Z,101858.88
2022-10-11T17:01:24.614Z,101867.78
2022-10-11T17:03:52.652Z,101867.13
2022-10-11T17:06:21.178Z,101860.22
2022-10-11T17:08:50.349Z,101861.16
2022-10-11T17:11:18.429Z,101861.16
2022-10-11T17:13:47.143Z,101862.09
2022-10-11T17:16:15.307Z,101863.03
2022-10-11T17:18:43.453Z,101857.91
2022-10-11T17:21:13.992Z,101861.44
2022-10-11T17:23:42.377Z,101857.13
2022-10-11T17:26:16.447Z,101862.41
2022-10-11T17:28:44.923Z,101872.06
2022-10-11T17:31:13.212Z,101860.75
2022-10-11T17:33:40.996Z,101861.66
2022-10-11T17:36:23.851Z,101867.84
2022-10-11T17:38:53.261Z,101859.19
2022-10-11T17:41:22.315Z,101850.50
2022-10-11T17:43:50.196Z,101854.94
2022-10-11T17:46:19.358Z,101857.63
2022-10-11T17:48:47.224Z,101862.06
2022-10-11T17:51:16.858Z,101857.75
2022-10-11T17:53:45.189Z,101862.16
2022-10-11T17:56:14.967Z,101858.69
2022-10-11T17:58:45.138Z,101858.75
2022-10-11T18:01:15.334Z,101861.38
2022-10-11T18:03:44.418Z,101864.88
2022-10-11T18:06:14.207Z,101858.75
2022-10-11T18:08:43.283Z,101864.00
2022-10-11T18:11:13.639Z,101860.59
2022-10-11T18:13:45.804Z,101860.59
2022-10-11T18:16:16.097Z,101862.31
2022-10-11T18:18:44.692Z,101863.22
2022-10-11T18:21:13.124Z,101860.56
2022-10-11T18:23:41.631Z,101861.34
2022-10-11T18:26:11.400Z,101862.97
2022-10-11T18:28:40.481Z,101858.59
2022-10-11T18:31:13.382Z,101851.53
2022-10-11T18:33:45.798Z,101853.19
2022-10-11T18:36:16.240Z,101850.53
2022-10-11T18:38:46.651Z,101850.59
2022-10-11T18:41:16.759Z,101843.72
2022-10-11T18:43:48.941Z,101842.06
2022-10-11T18:46:16.797Z,101841.22
2022-10-11T18:48:48.481Z,101846.56
2022-10-11T18:51:19.285Z,101843.97
2022-10-11T18:53:47.867Z,101844.00
2022-10-11T18:56:17.698Z,101845.78
2022-10-11T18:58:45.696Z,101853.66
2022-10-11T19:01:16.957Z,101852.78
2022-10-11T19:03:48.132Z,101849.28
2022-10-11T19:06:18.501Z,101848.41
2022-10-11T19:08:47.089Z,101850.19
2022-10-11T19:11:16.862Z,101852.78
2022-10-11T19:13:45.158Z,101864.13
2022-10-11T19:16:15.233Z,101864.13
2022-10-11T19:18:44.436Z,101868.44
2022-10-11T19:21:14.497Z,101866.72
2022-10-11T19:23:44.317Z,101865.84
2022-10-11T19:26:15.534Z,101864.97
2022-10-11T19:28:43.935Z,101869.31
2022-10-11T19:31:17.010Z,101864.03
2022-10-11T19:33:49.700Z,101869.25
2022-10-11T19:36:20.223Z,101865.69
2022-10-11T19:38:50.906Z,101867.44
2022-10-11T19:41:20.710Z,101861.31
2022-10-11T19:43:48.540Z,101870.84
2022-10-11T19:46:37.893Z,101869.03
2022-10-11T19:49:07.538Z,101867.28
2022-10-11T19:51:38.094Z,101862.91
2022-10-11T19:54:07.923Z,101869.00
2022-10-11T19:56:36.665Z,101865.47
2022-10-11T19:59:06.501Z,101866.34
2022-10-11T20:01:35.490Z,101867.19
2022-10-11T20:04:05.954Z,101872.34
2022-10-11T20:06:38.701Z,101875.78
2022-10-11T20:11:54.908Z,101873.03
2022-10-11T20:14:24.130Z,101868.69
2022-10-11T20:16:52.478Z,101868.66
2022-10-11T20:19:24.869Z,101869.47
2022-10-11T20:21:56.347Z,101859.88
2022-10-11T20:24:24.361Z,101870.34
2022-10-11T20:26:52.365Z,101862.59
2022-10-11T20:29:20.409Z,101855.59
2022-10-11T20:31:48.097Z,101861.66
2022-10-11T20:34:15.928Z,101872.84
2022-10-11T20:36:48.251Z,101864.94
2022-10-11T20:39:18.562Z,101865.75
2022-10-11T20:41:46.568Z,101872.66
2022-10-11T20:44:16.040Z,101857.06
2022-10-11T20:46:43.774Z,101856.16
2022-10-11T20:49:13.567Z,101857.81
2022-10-11T20:51:42.839Z,101861.13
2022-10-11T20:54:11.274Z,101855.88
2022-10-11T20:56:41.457Z,101850.69
2022-10-11T20:59:09.985Z,101859.38
2022-10-11T21:01:39.676Z,101854.19
2022-10-11T21:04:18.589Z,101861.06
2022-10-11T21:06:48.621Z,101866.03
2022-10-11T21:09:17.402Z,101861.69
2022-10-11T21:11:47.156Z,101850.31
2022-10-11T21:14:15.125Z,101867.66
2022-10-11T21:16:43.033Z,101858.91
2022-10-11T21:19:15.065Z,101861.56
2022-10-11T21:21:43.521Z,101861.56
2022-10-11T21:24:11.473Z,101865.91
2022-10-11T21:26:39.232Z,101863.31
2022-10-11T21:29:08.547Z,101864.94
2022-10-11T21:31:36.554Z,101857.09
2022-10-11T21:34:05.086Z,101855.44
2022-10-11T21:36:32.850Z,101853.75
2022-10-11T21:39:00.905Z,101853.69
2022-10-11T21:41:30.313Z,101860.63
2022-10-11T21:43:58.605Z,101851.09
2022-10-11T21:47:01.114Z,101841.38
2022-10-11T21:49:19.057Z,101850.81
2022-10-11T21:51:47.211Z,101849.84
2022-10-11T21:54:15.139Z,101846.22
2022-10-11T21:56:43.062Z,101849.63
2022-10-11T21:59:12.397Z,101849.63
2022-10-11T22:01:42.957Z,101852.19
2022-10-11T22:04:11.980Z,101856.53
2022-10-11T22:06:40.727Z,101855.53
2022-10-11T22:09:09.463Z,101853.72
2022-10-11T22:11:37.359Z,101851.97
2022-10-11T22:14:05.519Z,101844.97
2022-10-11T22:16:34.547Z,101837.06
2022-10-11T22:19:04.074Z,101847.56
2022-10-11T22:21:31.736Z,101847.41
2022-10-11T22:23:59.574Z,101843.00
2022-10-11T22:26:30.504Z,101843.03
2022-10-11T22:28:58.664Z,101842.16
2022-10-11T22:31:26.426Z,101850.75
2022-10-11T22:33:55.635Z,101847.97
2022-10-11T22:36:25.115Z,101840.16
2022-10-11T22:38:53.542Z,101840.91
2022-10-11T22:41:21.574Z,101847.06
2022-10-11T22:43:49.273Z,101854.81
2022-10-11T22:46:17.128Z,101860.03
2022-10-11T22:48:45.048Z,101859.19
2022-10-11T22:51:13.533Z,101861.69
2022-10-11T22:53:42.624Z,101863.38
2022-10-11T22:56:11.125Z,101860.81
2022-10-11T22:58:38.829Z,101857.38
2022-10-11T23:01:10.213Z,101863.56
2022-10-11T23:03:38.479Z,101862.66
2022-10-11T23:06:06.827Z,101858.31
2022-10-11T23:08:34.517Z,101859.06
2022-10-11T23:11:08.087Z,101871.06
2022-10-11T23:13:36.129Z,101864.25
2022-10-11T23:16:07.118Z,101858.22
2022-10-11T23:18:35.221Z,101856.50
2022-10-11T23:21:03.489Z,101859.75
2022-10-11T23:23:31.319Z,101857.94
2022-10-11T23:26:03.231Z,101858.72
2022-10-11T23:28:32.418Z,101865.56
2022-10-11T23:31:00.290Z,101864.78
2022-10-11T23:33:29.342Z,101867.44
2022-10-11T23:35:57.402Z,101867.19
2022-10-11T23:38:25.210Z,101861.06
2022-10-11T23:40:52.951Z,101864.53
2022-10-11T23:43:20.850Z,101862.81
2022-10-11T23:45:50.258Z,101868.69
2022-10-11T23:48:18.009Z,101870.22
2022-10-11T23:50:46.805Z,101865.00
2022-10-11T23:53:14.561Z,101864.25
2022-10-11T23:55:43.642Z,101861.38
2022-10-11T23:58:11.411Z,101866.59
